Airport Name : Rio Gallegos

Other Name : Rio Gallegos

ICAO : SAWG

IATA : RGL

FAA :

Latitude : -51.608875

Longitude : -69.312636

Country : Argentina

Local Date and Time : 24 Feb 2021 20:28

 

TAF (Terminal Aerodrome Forecast)

TAF SAWG 242300Z 2500/2524 25025G40KT 9999 SCT030 SCT090 TX18/2520Z TN13/2510Z BECMG 2503/2505 25020G30KT BKN030

 

METAR (METeorological Aerodrome Report)

SAWG 242300Z 23033G46KT 9999 SCT020 15/03 Q1004

SAWG 242200Z 23033G47KT 9999 SCT020 18/04 Q1003

SAWG 242100Z 23035G46KT 9999 SCT020 18/04 Q1001

SAWG 242000Z 23039G52KT 9999 SCT025 19/03 Q1000

To Charter a Jet Click here.